createdAt,value
2023-03-23T15:57:56.389Z,6.60
2023-03-23T16:00:26.248Z,8.00
2023-03-23T16:03:00.221Z,6.30
2023-03-23T16:05:28.336Z,8.00
2023-03-23T16:07:55.956Z,4.70
2023-03-23T16:10:25.850Z,4.37
2023-03-23T16:12:52.811Z,4.90
2023-03-23T16:15:20.174Z,5.40
2023-03-23T16:17:47.924Z,7.27
2023-03-23T16:20:20.433Z,6.20
2023-03-23T16:22:48.248Z,9.23
2023-03-23T16:25:16.208Z,11.63
2023-03-23T16:27:44.080Z,9.73
2023-03-23T16:30:20.148Z,5.67
2023-03-23T16:32:47.652Z,7.90
2023-03-23T16:35:15.662Z,6.97
2023-03-23T16:37:48.029Z,5.67
2023-03-23T16:40:20.098Z,6.10
2023-03-23T16:42:47.638Z,8.07
2023-03-23T16:45:15.579Z,6.93
2023-03-23T16:47:46.283Z,6.60
2023-03-23T16:50:17.414Z,6.30
2023-03-23T16:52:47.776Z,7.27
2023-03-23T16:55:19.209Z,10.73
2023-03-23T16:57:46.189Z,7.40
2023-03-23T17:00:16.533Z,8.20
2023-03-23T17:02:44.041Z,7.43
2023-03-23T17:05:11.961Z,6.87
2023-03-23T17:07:40.349Z,7.70
2023-03-23T17:10:09.777Z,10.57
2023-03-23T17:12:37.301Z,6.53
2023-03-23T17:15:05.464Z,6.07
2023-03-23T17:17:32.971Z,7.30
2023-03-23T17:20:00.561Z,7.00
2023-03-23T17:22:27.855Z,8.17
2023-03-23T17:24:54.867Z,8.03
2023-03-23T17:27:25.477Z,7.97
2023-03-23T17:29:52.285Z,5.33
2023-03-23T17:32:20.955Z,8.97
2023-03-23T17:34:47.886Z,7.47
2023-03-23T17:37:14.728Z,8.77
2023-03-23T17:39:43.241Z,6.10
2023-03-23T17:42:10.659Z,6.80
2023-03-23T17:44:37.809Z,7.97
2023-03-23T17:47:05.105Z,7.93
2023-03-23T17:49:32.366Z,9.50
2023-03-23T17:52:00.659Z,7.67
2023-03-23T17:54:29.782Z,7.30
2023-03-23T17:56:58.864Z,7.67
2023-03-23T17:59:28.545Z,8.37
2023-03-23T18:01:55.544Z,11.20
2023-03-23T18:04:23.021Z,5.30
2023-03-23T18:06:49.902Z,7.23
2023-03-23T18:09:16.784Z,11.30
2023-03-23T18:11:43.699Z,8.53
2023-03-23T18:14:10.936Z,7.60
2023-03-23T18:16:38.031Z,5.53
2023-03-23T18:19:05.164Z,6.10
2023-03-23T18:21:32.236Z,5.13
2023-03-23T18:24:00.154Z,9.30
2023-03-23T18:26:28.735Z,7.80
2023-03-23T18:28:56.414Z,7.53
2023-03-23T18:31:23.593Z,7.07
2023-03-23T18:33:54.739Z,9.70
2023-03-23T18:36:25.114Z,7.60
2023-03-23T18:38:56.960Z,8.83
2023-03-23T18:41:24.707Z,10.93
2023-03-23T18:43:51.981Z,8.70
2023-03-23T18:46:19.297Z,8.27
2023-03-23T18:48:46.222Z,6.60
2023-03-23T18:51:13.193Z,12.07
2023-03-23T18:53:40.894Z,6.73
2023-03-23T18:56:21.014Z,6.27
2023-03-23T18:58:48.143Z,7.00
2023-03-23T19:01:17.523Z,11.17
2023-03-23T19:03:45.716Z,8.10
2023-03-23T19:06:24.958Z,6.47
2023-03-23T19:08:52.518Z,11.37
2023-03-23T19:11:21.081Z,7.60
2023-03-23T19:14:00.498Z,10.00
2023-03-23T19:16:29.713Z,7.70
2023-03-23T19:18:56.565Z,6.27
2023-03-23T19:21:25.778Z,4.97
2023-03-23T19:23:54.540Z,10.67
2023-03-23T19:26:29.263Z,6.33
2023-03-23T19:31:26.149Z,8.20
2023-03-23T19:33:53.731Z,9.27
2023-03-23T19:36:22.865Z,7.30
2023-03-23T19:38:50.843Z,9.30
2023-03-23T19:41:19.299Z,5.57
2023-03-23T19:43:46.727Z,7.30
2023-03-23T19:46:15.046Z,6.37
2023-03-23T19:48:42.715Z,7.37
2023-03-23T19:51:12.201Z,8.30
2023-03-23T19:53:39.804Z,6.63
2023-03-23T19:56:16.426Z,8.80
2023-03-23T19:58:43.569Z,7.53
2023-03-23T20:01:11.359Z,5.53
2023-03-23T20:03:39.497Z,4.93
2023-03-23T20:06:11.255Z,9.20
2023-03-23T20:08:43.569Z,6.77
2023-03-23T20:11:13.479Z,5.63
2023-03-23T20:13:41.740Z,6.43
2023-03-23T20:16:09.925Z,6.53
2023-03-23T20:18:38.302Z,6.50
2023-03-23T20:21:11.088Z,5.03
2023-03-23T20:23:39.484Z,7.20
2023-03-23T20:26:11.704Z,4.73
2023-03-23T20:28:40.719Z,5.03
2023-03-23T20:31:19.907Z,8.37
2023-03-23T20:34:00.096Z,6.27
2023-03-23T20:36:36.401Z,4.87
2023-03-23T20:39:14.340Z,5.10
2023-03-23T20:41:43.874Z,5.17
2023-03-23T20:44:14.366Z,8.23
2023-03-23T20:46:42.758Z,6.20
2023-03-23T20:49:10.243Z,6.43
2023-03-23T20:51:37.542Z,6.37
2023-03-23T20:54:06.233Z,4.33
2023-03-23T20:56:34.631Z,4.90
2023-03-23T20:59:02.072Z,7.17
2023-03-23T21:01:29.659Z,4.73
2023-03-23T21:03:58.051Z,4.23
2023-03-23T21:06:28.598Z,4.80
2023-03-23T21:08:57.278Z,4.77
2023-03-23T21:11:26.169Z,4.87
2023-03-23T21:13:53.531Z,5.53
2023-03-23T21:16:20.827Z,7.70
2023-03-23T21:18:48.001Z,4.57
2023-03-23T21:21:18.513Z,9.47
2023-03-23T21:23:47.592Z,8.63
2023-03-23T21:26:17.195Z,9.03
2023-03-23T21:28:50.896Z,7.67
2023-03-23T21:31:18.469Z,6.77
2023-03-23T21:33:45.704Z,9.00
2023-03-23T21:36:12.696Z,8.03
2023-03-23T21:38:40.097Z,9.67
2023-03-23T21:41:13.447Z,8.97
2023-03-23T21:43:40.897Z,9.93
2023-03-23T21:46:09.836Z,9.70
2023-03-23T21:48:38.889Z,10.87
2023-03-23T21:51:12.590Z,11.67
2023-03-23T21:53:42.334Z,13.17
2023-03-23T21:56:11.206Z,12.73
2023-03-23T21:58:38.770Z,12.40
2023-03-23T22:01:06.138Z,12.00
2023-03-23T22:03:35.447Z,15.53
2023-03-23T22:06:27.091Z,14.00
2023-03-23T22:08:55.191Z,13.70
2023-03-23T22:11:25.979Z,14.23
2023-03-23T22:13:54.664Z,16.53
2023-03-23T22:16:23.587Z,15.53
2023-03-23T22:18:52.534Z,17.00
2023-03-23T22:21:22.209Z,20.40
2023-03-23T22:23:49.749Z,17.43
2023-03-23T22:26:16.829Z,17.83
2023-03-23T22:28:46.535Z,18.73
2023-03-23T22:31:21.539Z,17.23
2023-03-23T22:33:49.763Z,19.83
2023-03-23T22:36:17.840Z,17.40
2023-03-23T22:38:47.113Z,17.50
2023-03-23T22:41:23.342Z,17.47
2023-03-23T22:43:50.373Z,17.47
2023-03-23T22:46:18.343Z,19.00
2023-03-23T22:48:45.945Z,18.53
2023-03-23T22:51:17.527Z,19.23
2023-03-23T22:53:45.473Z,17.47
2023-03-23T22:56:13.145Z,18.50
2023-03-23T22:58:40.220Z,17.33
2023-03-23T23:01:12.020Z,16.70
2023-03-23T23:03:40.582Z,15.93
2023-03-23T23:06:08.380Z,16.87
2023-03-23T23:08:35.412Z,16.93
2023-03-23T23:11:04.214Z,16.00
2023-03-23T23:13:36.667Z,16.37
2023-03-23T23:16:03.798Z,15.57
2023-03-23T23:18:33.367Z,14.40
2023-03-23T23:21:04.722Z,14.43
2023-03-23T23:23:32.029Z,15.03
2023-03-23T23:25:59.095Z,13.60
2023-03-23T23:28:26.902Z,11.73
2023-03-23T23:30:54.223Z,11.10
2023-03-23T23:33:22.405Z,12.43
2023-03-23T23:35:49.964Z,12.90
2023-03-23T23:38:17.310Z,10.33
2023-03-23T23:40:46.390Z,8.90
2023-03-23T23:43:15.505Z,12.47
2023-03-23T23:45:43.427Z,8.80
2023-03-23T23:48:10.955Z,10.23
2023-03-23T23:50:38.124Z,10.20
2023-03-23T23:53:05.181Z,11.57
2023-03-23T23:55:33.249Z,13.17
2023-03-23T23:58:00.235Z,8.87
